Terminal Aerodrome Forecast
Issued by NWS

Home | Current Version | Previous Version | Text Only | Print | Product List | Glossary On
Versions: 1 2 3 4 5 6 7 8 9 10 11 12 13 14
274
FTAK31 PAJN 281736
TAFASI
TAF
PASI 281736Z 2818/2918 24005KT P6SM FEW020 BKN035 OVC100
     FM290700 11004KT P6SM FEW020 OVC080=

USA.gov is the U.S. government's official web portal to all federal, state and local government web resources and services.